sensor_id;sensor_type;location;lat;lon;timestamp;P1;durP1;ratioP1;P2;durP2;ratioP2
20138;SDS011;10230;51.502;10.800;2022-07-05T00:01:09;8.60;;;1.73;;
20138;SDS011;10230;51.502;10.800;2022-07-05T00:03:36;3.10;;;1.48;;
20138;SDS011;10230;51.502;10.800;2022-07-05T00:06:02;1.90;;;0.95;;
20138;SDS011;10230;51.502;10.800;2022-07-05T00:08:28;1.30;;;1.00;;
20138;SDS011;10230;51.502;10.800;2022-07-05T00:10:54;2.78;;;1.00;;
20138;SDS011;10230;51.502;10.800;2022-07-05T00:13:20;1.70;;;1.20;;
20138;SDS011;10230;51.502;10.800;2022-07-05T00:15:46;1.23;;;0.90;;
20138;SDS011;10230;51.502;10.800;2022-07-05T00:18:12;2.80;;;1.00;;
20138;SDS011;10230;51.502;10.800;2022-07-05T00:20:38;1.98;;;1.00;;
20138;SDS011;10230;51.502;10.800;2022-07-05T00:23:04;1.63;;;0.90;;
20138;SDS011;10230;51.502;10.800;2022-07-05T00:25:30;2.55;;;1.00;;
20138;SDS011;10230;51.502;10.800;2022-07-05T00:27:56;0.98;;;0.90;;
20138;SDS011;10230;51.502;10.800;2022-07-05T00:30:22;1.38;;;0.85;;
20138;SDS011;10230;51.502;10.800;2022-07-05T00:32:48;1.42;;;0.90;;
20138;SDS011;10230;51.502;10.800;2022-07-05T00:35:14;1.30;;;0.85;;
20138;SDS011;10230;51.502;10.800;2022-07-05T00:37:41;2.35;;;0.90;;
20138;SDS011;10230;51.502;10.800;2022-07-05T00:40:07;1.58;;;0.60;;
20138;SDS011;10230;51.502;10.800;2022-07-05T00:42:34;1.40;;;0.77;;
20138;SDS011;10230;51.502;10.800;2022-07-05T00:45:02;0.93;;;0.68;;
20138;SDS011;10230;51.502;10.800;2022-07-05T00:47:28;0.98;;;0.82;;
20138;SDS011;10230;51.502;10.800;2022-07-05T00:49:54;1.35;;;0.90;;
20138;SDS011;10230;51.502;10.800;2022-07-05T00:52:20;2.28;;;1.10;;
20138;SDS011;10230;51.502;10.800;2022-07-05T00:54:48;1.85;;;0.80;;
20138;SDS011;10230;51.502;10.800;2022-07-05T00:57:14;1.60;;;0.88;;
20138;SDS011;10230;51.502;10.800;2022-07-05T00:59:40;0.87;;;0.87;;
20138;SDS011;10230;51.502;10.800;2022-07-05T01:02:06;0.70;;;0.70;;
20138;SDS011;10230;51.502;10.800;2022-07-05T01:04:32;1.00;;;0.80;;
20138;SDS011;10230;51.502;10.800;2022-07-05T01:06:58;1.92;;;0.80;;
20138;SDS011;10230;51.502;10.800;2022-07-05T01:09:25;1.85;;;1.02;;
20138;SDS011;10230;51.502;10.800;2022-07-05T01:11:51;2.33;;;0.80;;
20138;SDS011;10230;51.502;10.800;2022-07-05T01:14:20;1.00;;;0.90;;
20138;SDS011;10230;51.502;10.800;2022-07-05T01:16:47;2.00;;;1.00;;
20138;SDS011;10230;51.502;10.800;2022-07-05T01:19:14;0.70;;;0.70;;
20138;SDS011;10230;51.502;10.800;2022-07-05T01:21:41;1.13;;;0.80;;
20138;SDS011;10230;51.502;10.800;2022-07-05T01:24:12;0.98;;;0.70;;
20138;SDS011;10230;51.502;10.800;2022-07-05T01:26:39;1.25;;;0.90;;
20138;SDS011;10230;51.502;10.800;2022-07-05T01:29:05;0.88;;;0.60;;
20138;SDS011;10230;51.502;10.800;2022-07-05T01:31:32;0.90;;;0.70;;
20138;SDS011;10230;51.502;10.800;2022-07-05T01:33:58;1.50;;;0.60;;
20138;SDS011;10230;51.502;10.800;2022-07-05T01:36:24;1.70;;;0.90;;
20138;SDS011;10230;51.502;10.800;2022-07-05T01:38:50;1.15;;;0.80;;
20138;SDS011;10230;51.502;10.800;2022-07-05T01:41:17;3.05;;;0.93;;
20138;SDS011;10230;51.502;10.800;2022-07-05T01:43:43;1.50;;;0.88;;
20138;SDS011;10230;51.502;10.800;2022-07-05T01:46:09;1.40;;;1.30;;
20138;SDS011;10230;51.502;10.800;2022-07-05T01:48:37;3.13;;;0.80;;
20138;SDS011;10230;51.502;10.800;2022-07-05T01:51:05;1.50;;;0.80;;
20138;SDS011;10230;51.502;10.800;2022-07-05T01:53:33;1.00;;;0.70;;
20138;SDS011;10230;51.502;10.800;2022-07-05T01:55:59;1.20;;;0.80;;
20138;SDS011;10230;51.502;10.800;2022-07-05T01:58:26;1.03;;;0.90;;
20138;SDS011;10230;51.502;10.800;2022-07-05T02:00:53;2.03;;;0.90;;
20138;SDS011;10230;51.502;10.800;2022-07-05T02:03:19;1.48;;;0.88;;
20138;SDS011;10230;51.502;10.800;2022-07-05T02:05:45;3.40;;;0.90;;
20138;SDS011;10230;51.502;10.800;2022-07-05T02:08:12;0.95;;;0.82;;
20138;SDS011;10230;51.502;10.800;2022-07-05T02:10:39;1.15;;;0.93;;
20138;SDS011;10230;51.502;10.800;2022-07-05T02:13:05;1.30;;;1.02;;
20138;SDS011;10230;51.502;10.800;2022-07-05T02:15:32;0.97;;;0.70;;
20138;SDS011;10230;51.502;10.800;2022-07-05T02:17:58;1.17;;;0.70;;
20138;SDS011;10230;51.502;10.800;2022-07-05T02:20:25;1.37;;;0.90;;
20138;SDS011;10230;51.502;10.800;2022-07-05T02:22:51;0.93;;;0.70;;
20138;SDS011;10230;51.502;10.800;2022-07-05T02:25:17;1.02;;;0.80;;
20138;SDS011;10230;51.502;10.800;2022-07-05T02:27:43;1.00;;;0.93;;
20138;SDS011;10230;51.502;10.800;2022-07-05T02:30:09;1.23;;;1.10;;
20138;SDS011;10230;51.502;10.800;2022-07-05T02:32:36;0.97;;;0.90;;
20138;SDS011;10230;51.502;10.800;2022-07-05T02:35:02;2.30;;;1.17;;
20138;SDS011;10230;51.502;10.800;2022-07-05T02:37:28;2.37;;;1.17;;
20138;SDS011;10230;51.502;10.800;2022-07-05T02:39:54;1.67;;;1.33;;
20138;SDS011;10230;51.502;10.800;2022-07-05T02:42:21;2.83;;;1.05;;
20138;SDS011;10230;51.502;10.800;2022-07-05T02:44:47;2.08;;;0.95;;
20138;SDS011;10230;51.502;10.800;2022-07-05T02:47:13;1.85;;;1.30;;
20138;SDS011;10230;51.502;10.800;2022-07-05T02:49:39;2.42;;;1.15;;
20138;SDS011;10230;51.502;10.800;2022-07-05T02:52:05;4.38;;;1.60;;
20138;SDS011;10230;51.502;10.800;2022-07-05T02:54:31;1.63;;;1.40;;
20138;SDS011;10230;51.502;10.800;2022-07-05T02:56:58;2.17;;;1.35;;
20138;SDS011;10230;51.502;10.800;2022-07-05T02:59:24;2.83;;;1.40;;
20138;SDS011;10230;51.502;10.800;2022-07-05T03:01:50;1.50;;;1.40;;
20138;SDS011;10230;51.502;10.800;2022-07-05T03:04:16;2.53;;;1.20;;
20138;SDS011;10230;51.502;10.800;2022-07-05T03:06:42;4.07;;;2.37;;
20138;SDS011;10230;51.502;10.800;2022-07-05T03:09:08;2.45;;;1.90;;
20138;SDS011;10230;51.502;10.800;2022-07-05T03:11:35;2.78;;;1.52;;
20138;SDS011;10230;51.502;10.800;2022-07-05T03:14:01;1.80;;;1.40;;
20138;SDS011;10230;51.502;10.800;2022-07-05T03:16:27;2.80;;;1.13;;
20138;SDS011;10230;51.502;10.800;2022-07-05T03:18:54;1.90;;;1.30;;
20138;SDS011;10230;51.502;10.800;2022-07-05T03:21:20;2.37;;;1.57;;
20138;SDS011;10230;51.502;10.800;2022-07-05T03:23:46;3.67;;;1.53;;
20138;SDS011;10230;51.502;10.800;2022-07-05T03:26:12;4.27;;;2.23;;
20138;SDS011;10230;51.502;10.800;2022-07-05T03:28:38;3.85;;;1.70;;
20138;SDS011;10230;51.502;10.800;2022-07-05T03:31:04;4.67;;;2.40;;
20138;SDS011;10230;51.502;10.800;2022-07-05T03:33:30;6.07;;;4.20;;
20138;SDS011;10230;51.502;10.800;2022-07-05T03:35:57;3.30;;;2.60;;
20138;SDS011;10230;51.502;10.800;2022-07-05T03:38:23;5.27;;;2.43;;
20138;SDS011;10230;51.502;10.800;2022-07-05T03:40:49;2.58;;;2.00;;
20138;SDS011;10230;51.502;10.800;2022-07-05T03:43:15;5.40;;;2.73;;
20138;SDS011;10230;51.502;10.800;2022-07-05T03:45:42;4.22;;;2.20;;
20138;SDS011;10230;51.502;10.800;2022-07-05T03:48:08;4.70;;;3.73;;
20138;SDS011;10230;51.502;10.800;2022-07-05T03:50:34;9.30;;;5.53;;
20138;SDS011;10230;51.502;10.800;2022-07-05T03:53:00;3.42;;;2.45;;
20138;SDS011;10230;51.502;10.800;2022-07-05T03:55:26;4.90;;;4.17;;
20138;SDS011;10230;51.502;10.800;2022-07-05T03:57:52;4.27;;;2.63;;
20138;SDS011;10230;51.502;10.800;2022-07-05T04:00:18;6.40;;;2.90;;
20138;SDS011;10230;51.502;10.800;2022-07-05T04:02:44;4.57;;;2.80;;
20138;SDS011;10230;51.502;10.800;2022-07-05T04:05:10;5.13;;;2.53;;
20138;SDS011;10230;51.502;10.800;2022-07-05T04:07:52;4.33;;;2.17;;
20138;SDS011;10230;51.502;10.800;2022-07-05T04:10:19;3.95;;;2.10;;
20138;SDS011;10230;51.502;10.800;2022-07-05T04:12:45;2.80;;;1.97;;
20138;SDS011;10230;51.502;10.800;2022-07-05T04:15:12;3.92;;;2.08;;
20138;SDS011;10230;51.502;10.800;2022-07-05T04:20:13;3.53;;;2.00;;
20138;SDS011;10230;51.502;10.800;2022-07-05T04:22:39;3.08;;;1.80;;
20138;SDS011;10230;51.502;10.800;2022-07-05T04:25:05;2.25;;;1.92;;
20138;SDS011;10230;51.502;10.800;2022-07-05T04:27:50;4.67;;;2.20;;
20138;SDS011;10230;51.502;10.800;2022-07-05T04:30:16;3.20;;;2.57;;
20138;SDS011;10230;51.502;10.800;2022-07-05T04:32:43;3.83;;;2.60;;
20138;SDS011;10230;51.502;10.800;2022-07-05T04:35:09;4.47;;;2.63;;
20138;SDS011;10230;51.502;10.800;2022-07-05T04:37:35;5.87;;;2.40;;
20138;SDS011;10230;51.502;10.800;2022-07-05T04:40:05;4.67;;;2.30;;
20138;SDS011;10230;51.502;10.800;2022-07-05T04:42:31;8.17;;;3.17;;
20138;SDS011;10230;51.502;10.800;2022-07-05T04:44:57;3.75;;;2.38;;
20138;SDS011;10230;51.502;10.800;2022-07-05T04:47:23;4.20;;;2.47;;
20138;SDS011;10230;51.502;10.800;2022-07-05T04:49:50;5.15;;;2.70;;
20138;SDS011;10230;51.502;10.800;2022-07-05T04:52:16;4.40;;;2.50;;
20138;SDS011;10230;51.502;10.800;2022-07-05T04:54:43;5.15;;;3.55;;
20138;SDS011;10230;51.502;10.800;2022-07-05T04:57:09;4.78;;;2.80;;
20138;SDS011;10230;51.502;10.800;2022-07-05T04:59:35;5.60;;;3.03;;
20138;SDS011;10230;51.502;10.800;2022-07-05T05:02:01;3.88;;;2.50;;
20138;SDS011;10230;51.502;10.800;2022-07-05T05:04:27;5.40;;;2.22;;
20138;SDS011;10230;51.502;10.800;2022-07-05T05:06:53;5.35;;;2.33;;
20138;SDS011;10230;51.502;10.800;2022-07-05T05:09:19;4.88;;;2.80;;
20138;SDS011;10230;51.502;10.800;2022-07-05T05:11:46;4.13;;;2.97;;
20138;SDS011;10230;51.502;10.800;2022-07-05T05:14:12;6.00;;;2.72;;
20138;SDS011;10230;51.502;10.800;2022-07-05T05:16:38;5.63;;;2.30;;
20138;SDS011;10230;51.502;10.800;2022-07-05T05:19:04;4.47;;;2.58;;
20138;SDS011;10230;51.502;10.800;2022-07-05T05:21:30;4.68;;;2.65;;
20138;SDS011;10230;51.502;10.800;2022-07-05T05:23:56;4.25;;;3.08;;
20138;SDS011;10230;51.502;10.800;2022-07-05T05:26:22;4.50;;;2.63;;
20138;SDS011;10230;51.502;10.800;2022-07-05T05:28:48;2.58;;;2.38;;
20138;SDS011;10230;51.502;10.800;2022-07-05T05:31:14;5.00;;;2.78;;
20138;SDS011;10230;51.502;10.800;2022-07-05T05:33:41;6.35;;;2.13;;
20138;SDS011;10230;51.502;10.800;2022-07-05T05:36:07;5.68;;;2.30;;
20138;SDS011;10230;51.502;10.800;2022-07-05T05:38:33;4.30;;;2.38;;
20138;SDS011;10230;51.502;10.800;2022-07-05T05:40:59;3.28;;;2.38;;
20138;SDS011;10230;51.502;10.800;2022-07-05T05:43:25;4.50;;;2.60;;
20138;SDS011;10230;51.502;10.800;2022-07-05T05:45:51;6.57;;;5.03;;
20138;SDS011;10230;51.502;10.800;2022-07-05T05:48:17;5.53;;;3.17;;
20138;SDS011;10230;51.502;10.800;2022-07-05T05:50:45;5.38;;;3.55;;
20138;SDS011;10230;51.502;10.800;2022-07-05T05:53:11;6.35;;;2.42;;
20138;SDS011;10230;51.502;10.800;2022-07-05T05:55:37;2.30;;;1.80;;
20138;SDS011;10230;51.502;10.800;2022-07-05T05:58:10;2.50;;;1.75;;
20138;SDS011;10230;51.502;10.800;2022-07-05T06:00:36;3.30;;;2.28;;
20138;SDS011;10230;51.502;10.800;2022-07-05T06:03:02;6.13;;;1.80;;
20138;SDS011;10230;51.502;10.800;2022-07-05T06:05:28;2.38;;;1.95;;
20138;SDS011;10230;51.502;10.800;2022-07-05T06:07:55;3.40;;;1.80;;
20138;SDS011;10230;51.502;10.800;2022-07-05T06:10:24;2.72;;;1.75;;
20138;SDS011;10230;51.502;10.800;2022-07-05T06:12:52;6.00;;;3.15;;
20138;SDS011;10230;51.502;10.800;2022-07-05T06:15:18;6.53;;;2.55;;
20138;SDS011;10230;51.502;10.800;2022-07-05T06:17:45;3.33;;;1.92;;
20138;SDS011;10230;51.502;10.800;2022-07-05T06:20:15;2.30;;;1.85;;
20138;SDS011;10230;51.502;10.800;2022-07-05T06:22:42;3.55;;;1.77;;
20138;SDS011;10230;51.502;10.800;2022-07-05T06:25:08;2.83;;;1.70;;
20138;SDS011;10230;51.502;10.800;2022-07-05T06:27:38;6.80;;;1.50;;
20138;SDS011;10230;51.502;10.800;2022-07-05T06:30:04;1.80;;;1.10;;
20138;SDS011;10230;51.502;10.800;2022-07-05T06:32:30;2.55;;;1.20;;
20138;SDS011;10230;51.502;10.800;2022-07-05T06:34:56;6.60;;;2.17;;
20138;SDS011;10230;51.502;10.800;2022-07-05T06:37:23;6.55;;;3.15;;
20138;SDS011;10230;51.502;10.800;2022-07-05T06:39:49;4.85;;;2.05;;
20138;SDS011;10230;51.502;10.800;2022-07-05T06:42:15;4.20;;;1.90;;
20138;SDS011;10230;51.502;10.800;2022-07-05T06:44:41;4.00;;;2.58;;
20138;SDS011;10230;51.502;10.800;2022-07-05T06:47:07;4.72;;;2.63;;
20138;SDS011;10230;51.502;10.800;2022-07-05T06:49:33;5.43;;;3.22;;
20138;SDS011;10230;51.502;10.800;2022-07-05T06:51:59;10.15;;;2.85;;
20138;SDS011;10230;51.502;10.800;2022-07-05T06:54:25;9.93;;;2.70;;
20138;SDS011;10230;51.502;10.800;2022-07-05T06:56:51;4.57;;;2.20;;
20138;SDS011;10230;51.502;10.800;2022-07-05T06:59:20;3.38;;;2.20;;
20138;SDS011;10230;51.502;10.800;2022-07-05T07:01:46;3.65;;;1.85;;
20138;SDS011;10230;51.502;10.800;2022-07-05T07:04:13;3.38;;;1.92;;
20138;SDS011;10230;51.502;10.800;2022-07-05T07:06:39;6.65;;;2.00;;
20138;SDS011;10230;51.502;10.800;2022-07-05T07:09:05;6.63;;;2.10;;
20138;SDS011;10230;51.502;10.800;2022-07-05T07:11:42;6.90;;;1.73;;
20138;SDS011;10230;51.502;10.800;2022-07-05T07:14:09;5.78;;;1.88;;
20138;SDS011;10230;51.502;10.800;2022-07-05T07:16:35;9.38;;;2.33;;
20138;SDS011;10230;51.502;10.800;2022-07-05T07:19:02;6.30;;;2.03;;
20138;SDS011;10230;51.502;10.800;2022-07-05T07:21:28;3.08;;;1.50;;
20138;SDS011;10230;51.502;10.800;2022-07-05T07:23:54;14.43;;;2.63;;
20138;SDS011;10230;51.502;10.800;2022-07-05T07:26:20;7.10;;;2.60;;
20138;SDS011;10230;51.502;10.800;2022-07-05T07:28:46;5.93;;;2.20;;
20138;SDS011;10230;51.502;10.800;2022-07-05T07:31:12;6.90;;;2.42;;
20138;SDS011;10230;51.502;10.800;2022-07-05T07:33:38;7.88;;;2.65;;
20138;SDS011;10230;51.502;10.800;2022-07-05T07:36:04;5.40;;;2.08;;
20138;SDS011;10230;51.502;10.800;2022-07-05T07:38:30;4.63;;;2.05;;
20138;SDS011;10230;51.502;10.800;2022-07-05T07:40:56;8.75;;;2.08;;
20138;SDS011;10230;51.502;10.800;2022-07-05T07:43:22;5.07;;;2.28;;
20138;SDS011;10230;51.502;10.800;2022-07-05T07:45:48;5.63;;;2.78;;
20138;SDS011;10230;51.502;10.800;2022-07-05T07:48:14;5.57;;;2.45;;
20138;SDS011;10230;51.502;10.800;2022-07-05T07:50:40;5.53;;;2.40;;
20138;SDS011;10230;51.502;10.800;2022-07-05T07:53:06;5.03;;;2.03;;
20138;SDS011;10230;51.502;10.800;2022-07-05T07:55:32;5.57;;;2.20;;
20138;SDS011;10230;51.502;10.800;2022-07-05T07:57:58;5.63;;;2.30;;
20138;SDS011;10230;51.502;10.800;2022-07-05T08:00:24;6.43;;;2.70;;
20138;SDS011;10230;51.502;10.800;2022-07-05T08:02:51;5.03;;;2.47;;
20138;SDS011;10230;51.502;10.800;2022-07-05T08:05:17;5.53;;;2.22;;
20138;SDS011;10230;51.502;10.800;2022-07-05T08:07:43;8.13;;;2.40;;
20138;SDS011;10230;51.502;10.800;2022-07-05T08:10:09;2.53;;;1.45;;
20138;SDS011;10230;51.502;10.800;2022-07-05T08:12:35;3.47;;;1.83;;
20138;SDS011;10230;51.502;10.800;2022-07-05T08:15:01;2.88;;;1.60;;
20138;SDS011;10230;51.502;10.800;2022-07-05T08:17:27;7.43;;;2.03;;
20138;SDS011;10230;51.502;10.800;2022-07-05T08:19:53;4.38;;;1.40;;
20138;SDS011;10230;51.502;10.800;2022-07-05T08:22:38;2.55;;;1.48;;
20138;SDS011;10230;51.502;10.800;2022-07-05T08:25:04;4.10;;;1.50;;
20138;SDS011;10230;51.502;10.800;2022-07-05T08:27:30;4.53;;;1.50;;
20138;SDS011;10230;51.502;10.800;2022-07-05T08:29:56;4.80;;;1.75;;
20138;SDS011;10230;51.502;10.800;2022-07-05T08:32:22;3.10;;;1.25;;
20138;SDS011;10230;51.502;10.800;2022-07-05T08:34:48;4.85;;;1.67;;
20138;SDS011;10230;51.502;10.800;2022-07-05T08:37:14;5.05;;;2.00;;
20138;SDS011;10230;51.502;10.800;2022-07-05T08:39:40;3.90;;;1.73;;
20138;SDS011;10230;51.502;10.800;2022-07-05T08:42:09;2.83;;;1.63;;
20138;SDS011;10230;51.502;10.800;2022-07-05T08:44:36;3.58;;;1.52;;
20138;SDS011;10230;51.502;10.800;2022-07-05T08:47:04;5.00;;;1.60;;
20138;SDS011;10230;51.502;10.800;2022-07-05T08:49:33;2.72;;;1.67;;
20138;SDS011;10230;51.502;10.800;2022-07-05T08:52:00;5.68;;;2.13;;
20138;SDS011;10230;51.502;10.800;2022-07-05T08:54:29;3.70;;;2.20;;
20138;SDS011;10230;51.502;10.800;2022-07-05T09:01:49;5.78;;;1.30;;
20138;SDS011;10230;51.502;10.800;2022-07-05T09:16:29;3.70;;;1.17;;
20138;SDS011;10230;51.502;10.800;2022-07-05T09:18:55;2.13;;;1.00;;
20138;SDS011;10230;51.502;10.800;2022-07-05T09:21:24;3.40;;;1.30;;
20138;SDS011;10230;51.502;10.800;2022-07-05T09:26:36;5.22;;;1.20;;
20138;SDS011;10230;51.502;10.800;2022-07-05T09:29:04;1.42;;;1.13;;
20138;SDS011;10230;51.502;10.800;2022-07-05T09:31:38;2.40;;;1.75;;
20138;SDS011;10230;51.502;10.800;2022-07-05T09:34:08;4.43;;;1.50;;
20138;SDS011;10230;51.502;10.800;2022-07-05T09:36:48;1.67;;;1.00;;
20138;SDS011;10230;51.502;10.800;2022-07-05T09:39:14;2.72;;;1.48;;
20138;SDS011;10230;51.502;10.800;2022-07-05T09:41:39;2.55;;;1.10;;
20138;SDS011;10230;51.502;10.800;2022-07-05T09:44:05;2.10;;;0.90;;
20138;SDS011;10230;51.502;10.800;2022-07-05T09:46:31;4.38;;;1.08;;
20138;SDS011;10230;51.502;10.800;2022-07-05T09:48:57;3.88;;;1.45;;
20138;SDS011;10230;51.502;10.800;2022-07-05T09:51:23;2.83;;;1.30;;
20138;SDS011;10230;51.502;10.800;2022-07-05T09:53:50;2.75;;;1.25;;
20138;SDS011;10230;51.502;10.800;2022-07-05T09:56:17;4.03;;;1.25;;
20138;SDS011;10230;51.502;10.800;2022-07-05T09:58:44;2.05;;;1.10;;
20138;SDS011;10230;51.502;10.800;2022-07-05T10:04:08;3.00;;;1.30;;
20138;SDS011;10230;51.502;10.800;2022-07-05T10:06:34;2.85;;;1.10;;
20138;SDS011;10230;51.502;10.800;2022-07-05T10:09:00;2.97;;;1.20;;
20138;SDS011;10230;51.502;10.800;2022-07-05T10:11:26;4.28;;;1.20;;
20138;SDS011;10230;51.502;10.800;2022-07-05T10:13:52;3.15;;;1.08;;
20138;SDS011;10230;51.502;10.800;2022-07-05T10:16:22;4.30;;;1.33;;
20138;SDS011;10230;51.502;10.800;2022-07-05T10:18:51;1.92;;;1.27;;
20138;SDS011;10230;51.502;10.800;2022-07-05T10:21:19;3.13;;;1.50;;
20138;SDS011;10230;51.502;10.800;2022-07-05T10:23:47;4.13;;;1.40;;
20138;SDS011;10230;51.502;10.800;2022-07-05T10:26:14;1.92;;;1.25;;
20138;SDS011;10230;51.502;10.800;2022-07-05T10:28:41;2.85;;;1.20;;
20138;SDS011;10230;51.502;10.800;2022-07-05T10:31:10;4.32;;;1.40;;
20138;SDS011;10230;51.502;10.800;2022-07-05T10:33:37;2.33;;;1.50;;
20138;SDS011;10230;51.502;10.800;2022-07-05T10:36:04;1.98;;;1.17;;
20138;SDS011;10230;51.502;10.800;2022-07-05T10:38:34;2.03;;;1.30;;
20138;SDS011;10230;51.502;10.800;2022-07-05T10:41:01;1.35;;;1.05;;
20138;SDS011;10230;51.502;10.800;2022-07-05T10:43:29;3.00;;;1.80;;
20138;SDS011;10230;51.502;10.800;2022-07-05T10:45:55;2.92;;;1.67;;
20138;SDS011;10230;51.502;10.800;2022-07-05T10:48:22;3.92;;;1.42;;
20138;SDS011;10230;51.502;10.800;2022-07-05T10:53:18;2.67;;;1.50;;
20138;SDS011;10230;51.502;10.800;2022-07-05T10:56:13;2.00;;;1.50;;
20138;SDS011;10230;51.502;10.800;2022-07-05T10:58:46;4.18;;;1.70;;
20138;SDS011;10230;51.502;10.800;2022-07-05T11:12:58;2.38;;;1.25;;
20138;SDS011;10230;51.502;10.800;2022-07-05T11:15:24;3.83;;;1.35;;
20138;SDS011;10230;51.502;10.800;2022-07-05T11:17:50;2.97;;;1.10;;
20138;SDS011;10230;51.502;10.800;2022-07-05T11:20:39;3.97;;;1.23;;
20138;SDS011;10230;51.502;10.800;2022-07-05T11:25:45;2.63;;;1.17;;
20138;SDS011;10230;51.502;10.800;2022-07-05T11:28:17;1.35;;;0.95;;
20138;SDS011;10230;51.502;10.800;2022-07-05T11:35:53;3.10;;;1.15;;
20138;SDS011;10230;51.502;10.800;2022-07-05T11:38:21;2.58;;;1.10;;
20138;SDS011;10230;51.502;10.800;2022-07-05T11:40:47;2.30;;;1.40;;
20138;SDS011;10230;51.502;10.800;2022-07-05T11:43:13;2.08;;;1.30;;
20138;SDS011;10230;51.502;10.800;2022-07-05T11:45:39;2.78;;;1.77;;
20138;SDS011;10230;51.502;10.800;2022-07-05T11:48:05;1.63;;;0.90;;
20138;SDS011;10230;51.502;10.800;2022-07-05T11:50:41;3.83;;;1.20;;
20138;SDS011;10230;51.502;10.800;2022-07-05T11:53:07;3.15;;;1.05;;
20138;SDS011;10230;51.502;10.800;2022-07-05T11:55:37;3.00;;;1.02;;
20138;SDS011;10230;51.502;10.800;2022-07-05T11:58:03;3.55;;;1.20;;
20138;SDS011;10230;51.502;10.800;2022-07-05T12:02:55;2.47;;;1.08;;
20138;SDS011;10230;51.502;10.800;2022-07-05T12:05:21;1.90;;;1.67;;
20138;SDS011;10230;51.502;10.800;2022-07-05T12:07:50;2.35;;;1.23;;
20138;SDS011;10230;51.502;10.800;2022-07-05T12:10:17;1.60;;;1.00;;
20138;SDS011;10230;51.502;10.800;2022-07-05T12:13:05;2.97;;;1.27;;
20138;SDS011;10230;51.502;10.800;2022-07-05T12:17:59;2.42;;;1.20;;
20138;SDS011;10230;51.502;10.800;2022-07-05T12:20:29;1.98;;;1.08;;
20138;SDS011;10230;51.502;10.800;2022-07-05T12:22:56;2.97;;;0.88;;
20138;SDS011;10230;51.502;10.800;2022-07-05T12:25:25;2.95;;;0.95;;
20138;SDS011;10230;51.502;10.800;2022-07-05T12:27:52;2.80;;;1.45;;
20138;SDS011;10230;51.502;10.800;2022-07-05T12:30:20;2.72;;;1.48;;
20138;SDS011;10230;51.502;10.800;2022-07-05T12:35:39;2.55;;;1.08;;
20138;SDS011;10230;51.502;10.800;2022-07-05T12:38:11;1.95;;;1.20;;
20138;SDS011;10230;51.502;10.800;2022-07-05T12:40:42;1.52;;;1.30;;
20138;SDS011;10230;51.502;10.800;2022-07-05T12:43:09;4.70;;;1.20;;
20138;SDS011;10230;51.502;10.800;2022-07-05T12:45:36;3.47;;;0.82;;
20138;SDS011;10230;51.502;10.800;2022-07-05T14:24:12;1.45;;;0.90;;
20138;SDS011;10230;51.502;10.800;2022-07-05T14:26:38;4.60;;;1.35;;
20138;SDS011;10230;51.502;10.800;2022-07-05T14:29:06;1.50;;;0.90;;
20138;SDS011;10230;51.502;10.800;2022-07-05T14:31:32;2.55;;;1.00;;
20138;SDS011;10230;51.502;10.800;2022-07-05T14:33:58;2.42;;;1.10;;
20138;SDS011;10230;51.502;10.800;2022-07-05T14:36:24;2.83;;;0.77;;
20138;SDS011;10230;51.502;10.800;2022-07-05T14:38:50;2.45;;;0.85;;
20138;SDS011;10230;51.502;10.800;2022-07-05T14:41:16;2.50;;;0.90;;
20138;SDS011;10230;51.502;10.800;2022-07-05T14:43:43;3.10;;;0.80;;
20138;SDS011;10230;51.502;10.800;2022-07-05T14:46:09;1.83;;;0.90;;
20138;SDS011;10230;51.502;10.800;2022-07-05T14:48:38;1.35;;;1.25;;
20138;SDS011;10230;51.502;10.800;2022-07-05T14:51:04;2.80;;;0.90;;
20138;SDS011;10230;51.502;10.800;2022-07-05T14:55:57;2.22;;;1.00;;
20138;SDS011;10230;51.502;10.800;2022-07-05T14:58:23;4.07;;;0.90;;
20138;SDS011;10230;51.502;10.800;2022-07-05T15:00:49;2.38;;;0.93;;
20138;SDS011;10230;51.502;10.800;2022-07-05T16:43:11;2.20;;;1.00;;
20138;SDS011;10230;51.502;10.800;2022-07-05T16:45:37;2.50;;;1.45;;
20138;SDS011;10230;51.502;10.800;2022-07-05T16:48:03;2.35;;;1.55;;
20138;SDS011;10230;51.502;10.800;2022-07-05T16:50:29;3.17;;;1.20;;
20138;SDS011;10230;51.502;10.800;2022-07-05T16:52:55;2.08;;;1.13;;
20138;SDS011;10230;51.502;10.800;2022-07-05T16:55:21;2.97;;;1.30;;
20138;SDS011;10230;51.502;10.800;2022-07-05T16:57:47;2.80;;;1.00;;
20138;SDS011;10230;51.502;10.800;2022-07-05T17:00:13;1.30;;;1.08;;
20138;SDS011;10230;51.502;10.800;2022-07-05T17:02:39;2.55;;;0.90;;
20138;SDS011;10230;51.502;10.800;2022-07-05T17:05:05;1.30;;;1.20;;
20138;SDS011;10230;51.502;10.800;2022-07-05T17:07:31;1.83;;;0.90;;
20138;SDS011;10230;51.502;10.800;2022-07-05T17:10:00;1.58;;;1.25;;
20138;SDS011;10230;51.502;10.800;2022-07-05T17:12:27;2.13;;;1.13;;
20138;SDS011;10230;51.502;10.800;2022-07-05T17:14:56;0.80;;;0.65;;
20138;SDS011;10230;51.502;10.800;2022-07-05T17:17:22;1.48;;;1.00;;
20138;SDS011;10230;51.502;10.800;2022-07-05T17:19:48;3.03;;;1.10;;
20138;SDS011;10230;51.502;10.800;2022-07-05T17:22:14;5.70;;;1.60;;
20138;SDS011;10230;51.502;10.800;2022-07-05T17:24:40;3.33;;;1.73;;
20138;SDS011;10230;51.502;10.800;2022-07-05T17:27:06;3.53;;;1.38;;
20138;SDS011;10230;51.502;10.800;2022-07-05T17:29:32;1.30;;;1.08;;
20138;SDS011;10230;51.502;10.800;2022-07-05T17:32:00;1.17;;;0.90;;
20138;SDS011;10230;51.502;10.800;2022-07-05T17:34:26;2.95;;;1.00;;
20138;SDS011;10230;51.502;10.800;2022-07-05T17:36:52;2.63;;;1.10;;
20138;SDS011;10230;51.502;10.800;2022-07-05T17:39:19;1.95;;;1.13;;
20138;SDS011;10230;51.502;10.800;2022-07-05T17:41:45;2.88;;;1.52;;
20138;SDS011;10230;51.502;10.800;2022-07-05T17:44:11;1.90;;;1.60;;
20138;SDS011;10230;51.502;10.800;2022-07-05T17:46:37;5.05;;;2.00;;
20138;SDS011;10230;51.502;10.800;2022-07-05T17:49:03;2.47;;;1.33;;
20138;SDS011;10230;51.502;10.800;2022-07-05T17:51:29;2.55;;;1.30;;
20138;SDS011;10230;51.502;10.800;2022-07-05T17:53:56;1.80;;;1.08;;
20138;SDS011;10230;51.502;10.800;2022-07-05T17:56:22;2.28;;;1.15;;
20138;SDS011;10230;51.502;10.800;2022-07-05T17:58:48;1.85;;;1.30;;
20138;SDS011;10230;51.502;10.800;2022-07-05T18:01:14;1.73;;;0.98;;
20138;SDS011;10230;51.502;10.800;2022-07-05T18:03:41;1.85;;;1.05;;
20138;SDS011;10230;51.502;10.800;2022-07-05T18:06:07;1.45;;;0.93;;
20138;SDS011;10230;51.502;10.800;2022-07-05T18:08:34;1.80;;;1.00;;
20138;SDS011;10230;51.502;10.800;2022-07-05T18:11:00;1.30;;;1.00;;
20138;SDS011;10230;51.502;10.800;2022-07-05T18:13:26;3.33;;;1.02;;
20138;SDS011;10230;51.502;10.800;2022-07-05T18:15:52;1.58;;;0.90;;
20138;SDS011;10230;51.502;10.800;2022-07-05T18:18:19;3.22;;;1.48;;
20138;SDS011;10230;51.502;10.800;2022-07-05T18:20:47;0.80;;;0.80;;
20138;SDS011;10230;51.502;10.800;2022-07-05T18:23:13;3.50;;;1.00;;
20138;SDS011;10230;51.502;10.800;2022-07-05T18:25:40;4.38;;;1.33;;
20138;SDS011;10230;51.502;10.800;2022-07-05T18:28:07;1.63;;;0.70;;
20138;SDS011;10230;51.502;10.800;2022-07-05T18:30:33;2.67;;;1.23;;
20138;SDS011;10230;51.502;10.800;2022-07-05T18:32:59;1.17;;;0.90;;
20138;SDS011;10230;51.502;10.800;2022-07-05T18:35:25;2.70;;;0.80;;
20138;SDS011;10230;51.502;10.800;2022-07-05T18:37:51;2.05;;;0.93;;
20138;SDS011;10230;51.502;10.800;2022-07-05T18:40:17;2.13;;;1.25;;
20138;SDS011;10230;51.502;10.800;2022-07-05T18:42:43;1.67;;;0.90;;
20138;SDS011;10230;51.502;10.800;2022-07-05T18:45:09;4.38;;;2.92;;